Terminal Aerodrome Forecast
Issued by NWS

Home | Current Version | Previous Version | Text Only | Print | Product List | Glossary On
Versions: 1 2 3 4 5 6 7 8 9 10 11 12
000
FTUS45 KABQ 290531
TAFSAF
TAF
KSAF 290531Z 2906/3006 02009KT P6SM FEW070
     FM291800 15010KT P6SM SCT080
     FM292200 14011KT P6SM VCTS BKN080CB
     FM300100 13010KT P6SM BKN090=

USA.gov is the U.S. government's official web portal to all federal, state and local government web resources and services.